GCHI/VDE METAR and TAF weather

Enter ICAO airport designator
Station Type Date Time Source
GCHI METAR 2018/04/19 13:00 UTC NOAA

GCHI 191300Z 34021KT 290V010 9999 FEW020 24/14 Q1018


Station Type Date Time Source
GCHI Decoded METAR 2018/04/19 13:00 UTC NOAA

Hierro / Aeropuerto, Spain (GCHI) 27-49N 017-53W 32M
Apr 19, 2018 - 09:00 AM EDT / 2018.04.19 1300 UTC
Wind: from the NNW (340 degrees) at 24 MPH (21 KT) (direction variable):0
Visibility: greater than 7 mile(s):0
Sky conditions: mostly clear
Temperature: 75 F (24 C)
Dew Point: 57 F (14 C)
Relative Humidity: 53%
Pressure (altimeter): 30.06 in. Hg (1018 hPa)
ob: GCHI 191300Z 34021KT 290V010 9999 FEW020 24/14 Q1018
cycle: 13

Station Type Date Time Source
GCHI TAF 2018/04/19 09:27 UTC NOAA

TAF GCHI 190800Z 1909/2009 35020KT 9999 FEW020 TX22/1915Z TN18/2006Z PROB30
TEMPO 1909/1924 35020G30KT


Example: see airport list